Metar z połowy godziny Komunikat METAR ze strony awiacja.imgw.pl Metar G00 EPZG METAR EPZG 261230Z 24010KT 220V290 7000 FEW013 02/M01 Q1010 =